Time;durP1;ratioP1;P1;durP2;ratioP2;P2;SDS_P1;SDS_P2;PMS_P1;PMS_P2;Temp;Humidity;BMP_temperature;BMP_pressure;BME280_temperature;BME280_humidity;BME280_pressure;Samples;Min_cycle;Max_cycle;Signal;HPM_P1;HPM_P2
2022/06/15 00:00:44;;;;;;;1.90;1.40;;;;;;;;;;5046905;28;20029;-72
2022/06/15 00:03:12;;;;;;;1.50;1.30;;;;;;;;;;5048085;28;20032;-72
2022/06/15 00:05:38;;;;;;;4.32;1.45;;;;;;;;;;5052036;28;20033;-72
2022/06/15 00:08:04;;;;;;;2.60;1.63;;;;;;;;;;5048013;28;20025;-72
2022/06/15 00:10:29;;;;;;;2.35;1.77;;;;;;;;;;5048427;28;20033;-72
2022/06/15 00:12:54;;;;;;;1.55;1.30;;;;;;;;;;5046655;28;20305;-72
2022/06/15 00:15:20;;;;;;;2.50;1.38;;;;;;;;;;5048010;28;20040;-72
2022/06/15 00:17:45;;;;;;;2.78;1.40;;;;;;;;;;5049651;28;20040;-72
2022/06/15 00:20:11;;;;;;;1.70;1.55;;;;;;;;;;5048359;28;20032;-73
2022/06/15 00:22:37;;;;;;;2.65;1.83;;;;;;;;;;5046387;28;20290;-73
2022/06/15 00:25:03;;;;;;;4.13;1.88;;;;;;;;;;5047610;28;20032;-72
2022/06/15 00:27:28;;;;;;;1.80;1.50;;;;;;;;;;5047856;28;20032;-72
2022/06/15 00:29:53;;;;;;;3.13;1.75;;;;;;;;;;5048181;28;20032;-72
2022/06/15 00:32:19;;;;;;;4.72;1.80;;;;;;;;;;5046410;28;20304;-72
2022/06/15 00:34:44;;;;;;;1.42;1.33;;;;;;;;;;5047824;28;20036;-72
2022/06/15 00:37:09;;;;;;;1.95;1.52;;;;;;;;;;5047964;28;20116;-72
2022/06/15 00:39:35;;;;;;;3.83;1.48;;;;;;;;;;5047107;28;20387;-72
2022/06/15 00:42:01;;;;;;;2.88;1.52;;;;;;;;;;5046287;28;20029;-72
2022/06/15 00:44:32;;;;;;;2.72;1.58;;;;;;;;;;5048473;28;20483;-72
2022/06/15 00:47:00;;;;;;;2.53;1.70;;;;;;;;;;5049237;28;20029;-72
2022/06/15 00:49:35;;;;;;;3.40;1.70;;;;;;;;;;5047631;28;20403;-72
2022/06/15 00:52:07;;;;;;;1.98;1.30;;;;;;;;;;5047565;28;20303;-72
2022/06/15 00:54:32;;;;;;;3.03;1.50;;;;;;;;;;5045464;28;20664;-72
2022/06/15 00:56:58;;;;;;;2.03;1.55;;;;;;;;;;5047811;28;20094;-72
2022/06/15 00:59:37;;;;;;;2.53;1.50;;;;;;;;;;5046401;28;20029;-72
2022/06/15 01:02:03;;;;;;;3.85;1.40;;;;;;;;;;5047018;28;20499;-72
2022/06/15 01:04:39;;;;;;;2.22;1.70;;;;;;;;;;5047582;28;20052;-72
2022/06/15 01:07:26;;;;;;;1.73;1.63;;;;;;;;;;5047256;28;20028;-72
2022/06/15 01:10:30;;;;;;;2.70;1.60;;;;;;;;;;5047523;28;20033;-72
2022/06/15 01:13:24;;;;;;;2.97;1.67;;;;;;;;;;5017133;28;20044;-72
2022/06/15 01:16:08;;;;;;;2.58;1.38;;;;;;;;;;5046691;28;20045;-72
2022/06/15 01:19:19;;;;;;;2.03;1.50;;;;;;;;;;5046839;28;20036;-72
2022/06/15 01:21:59;;;;;;;2.08;1.70;;;;;;;;;;5041605;28;20029;-72
2022/06/15 01:24:39;;;;;;;3.85;1.65;;;;;;;;;;5038712;28;20051;-72
2022/06/15 01:27:24;;;;;;;2.17;1.73;;;;;;;;;;5047283;28;20510;-72
2022/06/15 01:29:58;;;;;;;2.22;1.65;;;;;;;;;;5042981;28;20028;-71
2022/06/15 01:32:30;;;;;;;2.10;1.70;;;;;;;;;;5040258;28;20475;-71
2022/06/15 01:35:13;;;;;;;5.57;1.92;;;;;;;;;;5047058;28;20032;-72
2022/06/15 01:37:57;;;;;;;3.65;1.75;;;;;;;;;;5046057;28;20040;-71
2022/06/15 01:40:36;;;;;;;5.78;2.00;;;;;;;;;;5039590;28;20033;-71
2022/06/15 01:43:10;;;;;;;3.50;1.90;;;;;;;;;;5046876;28;20035;-72
2022/06/15 01:45:37;;;;;;;3.30;1.42;;;;;;;;;;5046829;28;20033;-71
2022/06/15 01:48:06;;;;;;;4.85;2.13;;;;;;;;;;5048727;28;20182;-71
2022/06/15 01:50:37;;;;;;;3.08;1.70;;;;;;;;;;5047559;28;20394;-71
2022/06/15 01:53:22;;;;;;;2.55;1.65;;;;;;;;;;5047716;28;20102;-71
2022/06/15 01:56:15;;;;;;;3.97;2.00;;;;;;;;;;5047165;28;20082;-71
2022/06/15 01:58:45;;;;;;;2.58;1.90;;;;;;;;;;5046412;28;20031;-71
2022/06/15 02:01:20;;;;;;;2.38;2.00;;;;;;;;;;5045549;28;20421;-72
2022/06/15 02:03:57;;;;;;;3.92;2.00;;;;;;;;;;5047758;28;20028;-72
2022/06/15 02:06:49;;;;;;;5.95;1.90;;;;;;;;;;5046723;28;20032;-71
2022/06/15 02:09:22;;;;;;;3.80;1.98;;;;;;;;;;5055159;28;20033;-71
2022/06/15 02:11:47;;;;;;;3.92;1.80;;;;;;;;;;5049279;28;20021;-71
2022/06/15 02:14:24;;;;;;;2.85;2.05;;;;;;;;;;5051000;28;20039;-71
2022/06/15 02:16:55;;;;;;;3.50;2.00;;;;;;;;;;5050836;28;20047;-71
2022/06/15 02:19:30;;;;;;;2.42;1.85;;;;;;;;;;5047545;28;20024;-71
2022/06/15 02:21:57;;;;;;;2.22;2.00;;;;;;;;;;5050100;28;20516;-71
2022/06/15 02:24:24;;;;;;;4.45;1.98;;;;;;;;;;5050246;28;20059;-71
2022/06/15 02:26:50;;;;;;;2.67;1.75;;;;;;;;;;5050756;28;20028;-71
2022/06/15 02:29:21;;;;;;;2.33;1.80;;;;;;;;;;5050305;28;20055;-72
2022/06/15 02:31:46;;;;;;;2.30;2.10;;;;;;;;;;5049452;28;20033;-71
2022/06/15 02:34:12;;;;;;;2.92;1.73;;;;;;;;;;5050728;28;20035;-72
2022/06/15 02:36:37;;;;;;;1.95;1.73;;;;;;;;;;5050918;28;20025;-72
2022/06/15 02:39:05;;;;;;;3.65;1.90;;;;;;;;;;5049555;28;20040;-71
2022/06/15 02:41:31;;;;;;;3.80;2.10;;;;;;;;;;5048513;28;20510;-71
2022/06/15 02:43:58;;;;;;;3.03;1.90;;;;;;;;;;5049787;28;20064;-71
2022/06/15 02:46:26;;;;;;;5.93;2.17;;;;;;;;;;5050449;28;20111;-71
2022/06/15 02:48:52;;;;;;;2.33;1.85;;;;;;;;;;5051435;28;20044;-71
2022/06/15 02:51:46;;;;;;;3.95;2.25;;;;;;;;;;5048070;28;20036;-71
2022/06/15 02:54:17;;;;;;;2.95;1.83;;;;;;;;;;5049248;28;20035;-72
2022/06/15 02:56:43;;;;;;;3.63;1.85;;;;;;;;;;5048004;28;20403;-71
2022/06/15 02:59:08;;;;;;;2.95;1.95;;;;;;;;;;5048865;28;20028;-71
2022/06/15 03:01:35;;;;;;;2.78;1.92;;;;;;;;;;5048956;28;20035;-71
2022/06/15 03:04:01;;;;;;;4.57;2.28;;;;;;;;;;5049940;28;20490;-71
2022/06/15 03:06:27;;;;;;;4.18;2.60;;;;;;;;;;5048650;28;20029;-71
2022/06/15 03:08:54;;;;;;;3.65;2.00;;;;;;;;;;5049663;28;20483;-71
2022/06/15 03:11:19;;;;;;;4.75;2.17;;;;;;;;;;5048896;28;20036;-71
2022/06/15 03:13:45;;;;;;;4.88;2.22;;;;;;;;;;5049983;28;20024;-71
2022/06/15 03:16:10;;;;;;;3.15;1.92;;;;;;;;;;5051588;28;20120;-71
2022/06/15 03:18:35;;;;;;;3.38;2.17;;;;;;;;;;5048953;28;20060;-71
2022/06/15 03:21:02;;;;;;;3.65;2.50;;;;;;;;;;5048874;28;20025;-71
2022/06/15 03:23:29;;;;;;;3.47;2.35;;;;;;;;;;5049675;28;20104;-70
2022/06/15 03:25:56;;;;;;;4.18;2.60;;;;;;;;;;5050476;28;20509;-70
2022/06/15 03:28:22;;;;;;;3.72;2.30;;;;;;;;;;5049628;28;20028;-71
2022/06/15 03:30:48;;;;;;;5.60;2.05;;;;;;;;;;5047147;28;20024;-71
2022/06/15 03:33:13;;;;;;;5.35;2.40;;;;;;;;;;5049564;28;20028;-71
2022/06/15 03:35:39;;;;;;;4.93;2.20;;;;;;;;;;5048983;28;20060;-71
2022/06/15 03:38:08;;;;;;;3.92;2.10;;;;;;;;;;5049175;28;20025;-71
2022/06/15 03:40:34;;;;;;;6.30;2.40;;;;;;;;;;5048766;28;20324;-71
2022/06/15 03:42:59;;;;;;;4.22;2.17;;;;;;;;;;5047210;28;20036;-71
2022/06/15 03:45:25;;;;;;;2.45;1.95;;;;;;;;;;5048754;28;20071;-71
2022/06/15 03:47:50;;;;;;;3.50;2.20;;;;;;;;;;5048583;28;20044;-72
2022/06/15 03:50:15;;;;;;;3.05;2.30;;;;;;;;;;5049111;28;20498;-71
2022/06/15 03:52:40;;;;;;;2.50;2.15;;;;;;;;;;5046789;28;20021;-71
2022/06/15 03:55:06;;;;;;;2.90;2.05;;;;;;;;;;5048480;28;20024;-71
2022/06/15 03:57:32;;;;;;;4.63;2.13;;;;;;;;;;5048845;28;20033;-71
2022/06/15 03:59:57;;;;;;;5.82;2.20;;;;;;;;;;5048947;28;20031;-71
2022/06/15 04:02:23;;;;;;;2.50;2.05;;;;;;;;;;5045536;28;20078;-74
2022/06/15 04:04:48;;;;;;;5.57;2.50;;;;;;;;;;5047988;28;20036;-72
2022/06/15 04:09:57;;;;;;;4.43;2.17;;;;;;;;;;5048333;28;20039;-72
2022/06/15 04:12:22;;;;;;;4.57;2.60;;;;;;;;;;5046616;28;20036;-71
2022/06/15 04:14:49;;;;;;;4.65;2.20;;;;;;;;;;5046852;28;20029;-72
2022/06/15 04:17:14;;;;;;;2.92;2.17;;;;;;;;;;5048566;28;20040;-71
2022/06/15 04:19:40;;;;;;;3.17;2.20;;;;;;;;;;5048440;28;20194;-72
2022/06/15 04:22:05;;;;;;;4.82;2.35;;;;;;;;;;5047306;28;20021;-72
2022/06/15 04:24:31;;;;;;;3.53;2.13;;;;;;;;;;5045788;28;20029;-72
2022/06/15 04:26:57;;;;;;;3.38;2.10;;;;;;;;;;5048336;28;20036;-71
2022/06/15 04:29:24;;;;;;;3.88;2.38;;;;;;;;;;5048056;28;20043;-72
2022/06/15 04:31:49;;;;;;;9.02;2.30;;;;;;;;;;5048485;28;20439;-72
2022/06/15 04:34:15;;;;;;;3.65;2.35;;;;;;;;;;5045823;28;20037;-72
2022/06/15 04:36:42;;;;;;;4.00;2.40;;;;;;;;;;5048043;28;20033;-72
2022/06/15 04:39:10;;;;;;;4.32;2.40;;;;;;;;;;5048035;28;20180;-72
2022/06/15 04:41:37;;;;;;;4.78;2.38;;;;;;;;;;5048385;28;20509;-72
2022/06/15 04:44:05;;;;;;;4.00;2.15;;;;;;;;;;5047109;28;20513;-72
2022/06/15 04:46:31;;;;;;;3.85;2.30;;;;;;;;;;5047568;28;20033;-72
2022/06/15 04:48:56;;;;;;;4.00;2.25;;;;;;;;;;5047921;28;20031;-72
2022/06/15 04:51:24;;;;;;;3.63;2.60;;;;;;;;;;5048364;28;20025;-71
2022/06/15 04:53:52;;;;;;;4.93;2.60;;;;;;;;;;5046206;28;20372;-72
2022/06/15 04:56:18;;;;;;;4.30;2.50;;;;;;;;;;5047964;28;20017;-71
2022/06/15 04:58:44;;;;;;;3.38;2.38;;;;;;;;;;5047808;28;20047;-72
2022/06/15 05:01:10;;;;;;;2.63;2.17;;;;;;;;;;5047396;28;20028;-71
2022/06/15 05:03:37;;;;;;;3.72;2.50;;;;;;;;;;5053047;28;20440;-72
2022/06/15 05:06:11;;;;;;;3.22;2.35;;;;;;;;;;5047914;28;20056;-72
2022/06/15 05:08:37;;;;;;;5.00;2.20;;;;;;;;;;5047892;28;20116;-72
2022/06/15 05:11:02;;;;;;;4.05;2.40;;;;;;;;;;5047034;28;20469;-72
2022/06/15 05:13:28;;;;;;;3.88;2.60;;;;;;;;;;5045749;28;20025;-72
2022/06/15 05:15:53;;;;;;;8.27;2.60;;;;;;;;;;5046683;28;20044;-72
2022/06/15 05:18:19;;;;;;;3.08;2.40;;;;;;;;;;5047616;28;20025;-71
2022/06/15 05:20:44;;;;;;;3.65;2.47;;;;;;;;;;5048164;28;20025;-72
2022/06/15 05:23:16;;;;;;;3.97;2.28;;;;;;;;;;5048274;28;20120;-72
2022/06/15 05:25:42;;;;;;;2.40;2.20;;;;;;;;;;5048768;28;21072;-72
2022/06/15 05:28:08;;;;;;;2.95;2.25;;;;;;;;;;5051008;28;20103;-71
2022/06/15 05:30:34;;;;;;;3.30;2.35;;;;;;;;;;5046827;28;20380;-72
2022/06/15 05:33:01;;;;;;;3.67;2.15;;;;;;;;;;5047225;28;20059;-72
2022/06/15 05:35:26;;;;;;;3.72;2.50;;;;;;;;;;5047734;28;20033;-72
2022/06/15 05:37:52;;;;;;;4.00;2.72;;;;;;;;;;5045671;28;20094;-72
2022/06/15 05:40:17;;;;;;;2.90;2.55;;;;;;;;;;5046847;28;20049;-72
2022/06/15 05:42:42;;;;;;;5.78;2.58;;;;;;;;;;5049401;28;20027;-72
2022/06/15 05:45:08;;;;;;;5.75;2.72;;;;;;;;;;5063265;28;20043;-72
2022/06/15 05:47:33;;;;;;;6.20;2.60;;;;;;;;;;5048964;28;20048;-72
2022/06/15 05:49:59;;;;;;;3.97;2.50;;;;;;;;;;5051322;28;20050;-73
2022/06/15 05:52:25;;;;;;;5.45;2.42;;;;;;;;;;5051973;28;20025;-72
2022/06/15 05:54:50;;;;;;;4.07;2.42;;;;;;;;;;5050900;28;20039;-72
2022/06/15 05:57:18;;;;;;;5.28;2.35;;;;;;;;;;5044546;28;20414;-73
2022/06/15 05:59:45;;;;;;;4.00;2.13;;;;;;;;;;5049009;28;20078;-73
2022/06/15 06:02:11;;;;;;;4.68;2.38;;;;;;;;;;5045271;28;20056;-72
2022/06/15 06:04:36;;;;;;;5.22;2.55;;;;;;;;;;5047300;28;20483;-72
2022/06/15 06:07:02;;;;;;;4.25;2.22;;;;;;;;;;5048483;28;20446;-71
2022/06/15 06:09:28;;;;;;;5.03;2.22;;;;;;;;;;5050357;28;20116;-72
2022/06/15 06:11:54;;;;;;;3.58;2.55;;;;;;;;;;5050667;28;20172;-71
2022/06/15 06:14:20;;;;;;;3.17;2.10;;;;;;;;;;5051481;28;20104;-72
2022/06/15 06:16:45;;;;;;;2.92;2.13;;;;;;;;;;5046905;28;20120;-71
2022/06/15 06:19:11;;;;;;;4.57;2.13;;;;;;;;;;5048602;28;20044;-72
2022/06/15 06:21:36;;;;;;;3.78;2.10;;;;;;;;;;5050660;28;20021;-71
2022/06/15 06:24:01;;;;;;;4.53;1.90;;;;;;;;;;5049237;28;20025;-72
2022/06/15 06:26:30;;;;;;;4.10;2.00;;;;;;;;;;5045808;28;20448;-72
2022/06/15 06:28:56;;;;;;;3.05;1.85;;;;;;;;;;5049241;28;20111;-72
2022/06/15 06:31:22;;;;;;;4.18;2.05;;;;;;;;;;5042816;28;20057;-72
2022/06/15 06:33:49;;;;;;;2.35;1.67;;;;;;;;;;5049922;28;20056;-70
2022/06/15 06:36:32;;;;;;;7.30;2.00;;;;;;;;;;5048997;28;20032;-72
2022/06/15 06:39:00;;;;;;;5.15;1.70;;;;;;;;;;5043816;28;20028;-73
2022/06/15 06:41:27;;;;;;;3.30;1.40;;;;;;;;;;5045757;28;20032;-72
2022/06/15 06:43:53;;;;;;;1.75;1.52;;;;;;;;;;5050211;28;20056;-73
2022/06/15 06:46:19;;;;;;;2.75;1.80;;;;;;;;;;5049004;28;20056;-72
2022/06/15 06:48:44;;;;;;;4.75;1.90;;;;;;;;;;5049601;28;20025;-73
2022/06/15 06:51:09;;;;;;;3.55;1.90;;;;;;;;;;5050011;28;20082;-72
2022/06/15 06:53:35;;;;;;;1.95;1.60;;;;;;;;;;5049536;28;20044;-73
2022/06/15 06:56:02;;;;;;;3.45;1.70;;;;;;;;;;5048841;28;20050;-73
2022/06/15 06:58:28;;;;;;;3.15;1.73;;;;;;;;;;5048474;28;20095;-73
2022/06/15 07:00:54;;;;;;;4.15;1.70;;;;;;;;;;5049868;28;20029;-72
2022/06/15 07:03:20;;;;;;;4.68;1.80;;;;;;;;;;5049970;28;20483;-74
2022/06/15 07:05:45;;;;;;;5.13;1.50;;;;;;;;;;5049088;28;20032;-73
2022/06/15 07:08:13;;;;;;;3.53;1.65;;;;;;;;;;5048432;28;20051;-74
2022/06/15 07:10:39;;;;;;;4.28;1.58;;;;;;;;;;5049892;28;20025;-73
2022/06/15 07:13:04;;;;;;;4.68;1.70;;;;;;;;;;5048347;28;20033;-72
2022/06/15 07:15:30;;;;;;;5.10;1.88;;;;;;;;;;5048947;28;20217;-73
2022/06/15 07:17:59;;;;;;;3.25;1.80;;;;;;;;;;5048967;28;20036;-72
2022/06/15 07:20:25;;;;;;;5.65;2.45;;;;;;;;;;5046637;28;20036;-74
2022/06/15 07:22:51;;;;;;;7.50;1.73;;;;;;;;;;5043442;28;20085;-74
2022/06/15 07:25:16;;;;;;;8.25;1.70;;;;;;;;;;5046230;28;20021;-73
2022/06/15 07:27:43;;;;;;;4.20;1.70;;;;;;;;;;5046260;28;20142;-73
2022/06/15 07:30:14;;;;;;;8.15;1.63;;;;;;;;;;5045437;28;20103;-73
2022/06/15 07:32:41;;;;;;;4.70;1.42;;;;;;;;;;5046569;28;20027;-74
2022/06/15 07:35:12;;;;;;;8.52;1.50;;;;;;;;;;5046105;28;20485;-74
2022/06/15 07:37:37;;;;;;;3.90;1.80;;;;;;;;;;5044410;28;20045;-73
2022/06/15 07:40:03;;;;;;;6.53;1.50;;;;;;;;;;5044690;28;20044;-73
2022/06/15 07:42:28;;;;;;;11.32;1.95;;;;;;;;;;5045592;28;20051;-74
2022/06/15 07:44:53;;;;;;;7.38;1.60;;;;;;;;;;5046225;28;20415;-75
2022/06/15 07:50:03;;;;;;;6.95;1.70;;;;;;;;;;5045022;28;20328;-73
2022/06/15 07:52:34;;;;;;;4.05;1.50;;;;;;;;;;5044931;28;20084;-72
2022/06/15 07:55:00;;;;;;;7.88;1.50;;;;;;;;;;5044323;28;20044;-72
2022/06/15 07:57:26;;;;;;;8.05;1.30;;;;;;;;;;5045257;28;20087;-70
2022/06/15 07:59:51;;;;;;;2.50;1.45;;;;;;;;;;5045435;28;20386;-72
2022/06/15 08:02:17;;;;;;;3.95;1.27;;;;;;;;;;5045395;28;20012;-72
2022/06/15 08:04:43;;;;;;;5.28;1.73;;;;;;;;;;5045259;28;20060;-71
2022/06/15 08:07:11;;;;;;;3.93;1.37;;;;;;;;;;5044940;28;20447;-71
2022/06/15 08:09:37;;;;;;;3.20;1.10;;;;;;;;;;5044373;28;20339;-72
2022/06/15 08:12:14;;;;;;;3.35;1.50;;;;;;;;;;5044833;28;20325;-72
2022/06/15 08:14:44;;;;;;;4.82;1.40;;;;;;;;;;5045346;28;20152;-71
2022/06/15 08:17:33;;;;;;;4.45;1.50;;;;;;;;;;5044885;28;20043;-72
2022/06/15 08:20:31;;;;;;;5.30;2.03;;;;;;;;;;5043866;28;20091;-72
2022/06/15 08:23:01;;;;;;;5.53;1.42;;;;;;;;;;5048762;28;20074;-71
2022/06/15 08:25:31;;;;;;;4.30;1.30;;;;;;;;;;5025041;28;20491;-72
2022/06/15 08:27:56;;;;;;;;;;;;;;;;;;5041328;28;20033;-71
2022/06/15 08:30:22;;;;;;;2.63;1.40;;;;;;;;;;5043424;28;19912;-71
2022/06/15 08:32:48;;;;;;;3.95;1.60;;;;;;;;;;5034927;28;20041;-72
2022/06/15 08:35:14;;;;;;;3.92;1.52;;;;;;;;;;5057121;28;20024;-71
2022/06/15 08:37:40;;;;;;;2.85;1.60;;;;;;;;;;5048093;28;20078;-71
2022/06/15 08:40:08;;;;;;;7.35;1.60;;;;;;;;;;5043868;28;20044;-71
2022/06/15 08:42:36;;;;;;;4.45;1.42;;;;;;;;;;5042986;28;20032;-72
2022/06/15 08:45:29;;;;;;;5.55;1.50;;;;;;;;;;5044991;28;20041;-71
2022/06/15 08:48:20;;;;;;;4.03;1.42;;;;;;;;;;5044078;28;20073;-72
2022/06/15 08:51:09;;;;;;;4.57;2.08;;;;;;;;;;5044852;28;20140;-72
2022/06/15 08:53:45;;;;;;;5.28;1.38;;;;;;;;;;5044491;28;20051;-72
2022/06/15 08:56:17;;;;;;;3.47;1.50;;;;;;;;;;5043229;28;20435;-72
2022/06/15 08:58:57;;;;;;;2.90;1.40;;;;;;;;;;5043993;28;20029;-74
2022/06/15 09:01:34;;;;;;;10.00;1.55;;;;;;;;;;5044513;28;20024;-72
2022/06/15 09:04:08;;;;;;;5.47;1.55;;;;;;;;;;5043756;28;20307;-73
2022/06/15 09:06:43;;;;;;;3.08;1.63;;;;;;;;;;5044543;28;20108;-71
2022/06/15 09:09:23;;;;;;;4.88;1.80;;;;;;;;;;5044343;28;20410;-72
2022/06/15 09:12:49;;;;;;;;;;;;;;;;;;5045319;28;20470;-72
2022/06/15 09:15:06;;;;;;;5.07;1.67;;;;;;;;;;5044369;28;19990;-72
2022/06/15 09:17:33;;;;;;;4.03;1.75;;;;;;;;;;5046973;28;20283;-72
2022/06/15 09:20:25;;;;;;;3.22;1.60;;;;;;;;;;5047694;28;20107;-72
2022/06/15 09:23:07;;;;;;;5.07;2.00;;;;;;;;;;5047352;28;20119;-72
2022/06/15 09:25:38;;;;;;;4.63;1.65;;;;;;;;;;5047645;28;20025;-72
2022/06/15 09:28:11;;;;;;;6.03;1.95;;;;;;;;;;5047267;28;20029;-73
2022/06/15 09:30:41;;;;;;;6.72;2.33;;;;;;;;;;5048433;28;20128;-72
2022/06/15 09:33:16;;;;;;;;;;;;;;;;;;5048671;28;20108;-72
2022/06/15 09:35:56;;;;;;;7.13;2.20;;;;;;;;;;5048361;28;20530;-71
2022/06/15 09:38:21;;;;;;;6.55;1.77;;;;;;;;;;5046256;28;20094;-72
2022/06/15 09:40:55;;;;;;;7.07;2.03;;;;;;;;;;5046302;28;20487;-71
2022/06/15 09:43:42;;;;;;;7.28;1.75;;;;;;;;;;5047282;28;20053;-71
2022/06/15 09:46:44;;;;;;;6.25;1.73;;;;;;;;;;5049685;28;20361;-72
2022/06/15 09:49:10;;;;;;;5.65;2.08;;;;;;;;;;5046850;28;20025;-71
2022/06/15 09:51:45;;;;;;;8.53;1.70;;;;;;;;;;5048303;28;20044;-73
2022/06/15 09:54:48;;;;;;;4.88;1.90;;;;;;;;;;5048514;28;20064;-71
2022/06/15 09:57:14;;;;;;;3.63;1.58;;;;;;;;;;5046239;28;20094;-72
2022/06/15 09:59:40;;;;;;;4.95;1.80;;;;;;;;;;5046613;28;20032;-72
2022/06/15 10:02:16;;;;;;;2.60;1.77;;;;;;;;;;5048316;28;20059;-71
2022/06/15 10:04:43;;;;;;;5.18;1.70;;;;;;;;;;5048258;28;20039;-72
2022/06/15 10:07:13;;;;;;;7.07;1.70;;;;;;;;;;5047339;28;20070;-73
2022/06/15 10:09:46;;;;;;;5.18;1.90;;;;;;;;;;5043528;28;20037;-71
2022/06/15 10:15:18;;;;;;;3.50;1.70;;;;;;;;;;5048414;28;20116;-72
2022/06/15 10:17:46;;;;;;;3.83;1.73;;;;;;;;;;5047620;28;20581;-71
2022/06/15 10:20:23;;;;;;;3.50;1.73;;;;;;;;;;5047894;28;20037;-72
2022/06/15 10:22:53;;;;;;;7.63;1.80;;;;;;;;;;5048116;28;20035;-72
2022/06/15 10:25:19;;;;;;;12.30;2.10;;;;;;;;;;5048295;28;20044;-72
2022/06/15 10:27:44;;;;;;;6.18;1.70;;;;;;;;;;5046429;28;20041;-71
2022/06/15 10:30:10;;;;;;;4.50;2.10;;;;;;;;;;5047991;28;20091;-70
2022/06/15 10:32:39;;;;;;;4.17;1.73;;;;;;;;;;5047898;28;20078;-71
2022/06/15 10:35:18;;;;;;;2.58;1.83;;;;;;;;;;5047193;28;20027;-71
2022/06/15 10:37:52;;;;;;;2.08;1.63;;;;;;;;;;5047413;28;20040;-71
2022/06/15 10:40:36;;;;;;;2.28;1.58;;;;;;;;;;5047262;28;20098;-71
2022/06/15 10:43:02;;;;;;;4.20;1.83;;;;;;;;;;5047265;28;20044;-72
2022/06/15 10:45:37;;;;;;;2.72;1.67;;;;;;;;;;5047305;28;20056;-70
2022/06/15 10:48:06;;;;;;;4.28;1.67;;;;;;;;;;5047245;28;20017;-72
2022/06/15 10:50:43;;;;;;;4.05;1.95;;;;;;;;;;5047758;28;20490;-71
2022/06/15 10:53:37;;;;;;;7.30;2.00;;;;;;;;;;5047560;28;20028;-70
2022/06/15 11:02:08;;;;;;;6.50;1.90;;;;;;;;;;5047833;28;20040;-76
2022/06/15 11:04:37;;;;;;;5.88;1.77;;;;;;;;;;5046894;28;20025;-70
2022/06/15 11:07:23;;;;;;;3.33;1.90;;;;;;;;;;5046552;28;20390;-70
2022/06/15 11:09:55;;;;;;;4.93;1.60;;;;;;;;;;5046678;28;20459;-69
2022/06/15 11:12:34;;;;;;;2.85;1.65;;;;;;;;;;5046428;28;20419;-70
2022/06/15 11:15:03;;;;;;;1.90;1.60;;;;;;;;;;5046865;28;20083;-69
2022/06/15 11:20:30;;;;;;;5.25;2.15;;;;;;;;;;5045610;28;20544;-71
2022/06/15 11:23:04;;;;;;;2.53;1.60;;;;;;;;;;5046199;28;20025;-71
2022/06/15 11:25:42;;;;;;;4.43;1.75;;;;;;;;;;5046425;28;20029;-71
2022/06/15 11:28:14;;;;;;;2.50;1.50;;;;;;;;;;5046220;28;20423;-71
2022/06/15 11:30:49;;;;;;;2.88;1.75;;;;;;;;;;5046329;28;20052;-70
2022/06/15 11:33:20;;;;;;;3.95;1.73;;;;;;;;;;5045869;28;20021;-70
2022/06/15 11:36:00;;;;;;;2.80;1.58;;;;;;;;;;5046799;28;20486;-71
2022/06/15 11:38:43;;;;;;;2.30;1.63;;;;;;;;;;5046733;28;20043;-71
2022/06/15 11:41:14;;;;;;;5.22;1.95;;;;;;;;;;5045976;28;20052;-70
2022/06/15 11:43:43;;;;;;;3.53;1.77;;;;;;;;;;5049115;28;20021;-71
2022/06/15 11:46:32;;;;;;;2.58;1.77;;;;;;;;;;5047155;28;20390;-71
2022/06/15 11:49:36;;;;;;;3.17;1.90;;;;;;;;;;5048051;28;20111;-72
2022/06/15 11:52:20;;;;;;;2.60;1.95;;;;;;;;;;5033026;28;20074;-71
2022/06/15 11:55:04;;;;;;;2.45;1.63;;;;;;;;;;5038748;28;20558;-70
2022/06/15 11:58:24;;;;;;;6.38;1.80;;;;;;;;;;5045291;28;20040;-72
2022/06/15 12:01:02;;;;;;;2.88;1.80;;;;;;;;;;4985752;28;20054;-70
2022/06/15 12:03:39;;;;;;;4.95;1.60;;;;;;;;;;5043207;28;20124;-72
2022/06/15 12:06:07;;;;;;;4.07;1.67;;;;;;;;;;5042374;28;20028;-71
2022/06/15 12:08:38;;;;;;;2.13;1.73;;;;;;;;;;5045332;28;20056;-70
2022/06/15 12:14:11;;;;;;;;;;;;;;;;;;5036700;28;19927;-71
2022/06/15 12:16:49;;;;;;;2.05;1.60;;;;;;;;;;5043146;28;20366;-71
2022/06/15 12:19:55;;;;;;;2.53;1.80;;;;;;;;;;5042524;28;20479;-69
2022/06/15 12:22:23;;;;;;;5.25;1.80;;;;;;;;;;5040390;28;20032;-70
2022/06/15 12:25:11;;;;;;;3.80;2.00;;;;;;;;;;5041302;28;20029;-70
2022/06/15 12:27:48;;;;;;;1.85;1.40;;;;;;;;;;5032837;28;21289;-71
2022/06/15 12:30:33;;;;;;;3.45;1.85;;;;;;;;;;5061220;28;20047;-71
2022/06/15 12:33:14;;;;;;;5.30;2.05;;;;;;;;;;5044514;28;20028;-70
2022/06/15 12:35:58;;;;;;;3.03;1.90;;;;;;;;;;5040780;28;20025;-71
2022/06/15 12:38:44;;;;;;;3.88;1.60;;;;;;;;;;5045350;28;20033;-72
2022/06/15 12:44:04;;;;;;;3.97;1.80;;;;;;;;;;5045215;28;20080;-71
2022/06/15 12:46:30;;;;;;;3.05;1.70;;;;;;;;;;5043543;28;20037;-70
2022/06/15 12:49:23;;;;;;;6.93;1.80;;;;;;;;;;5044694;28;20129;-71
2022/06/15 12:52:03;;;;;;;3.88;1.75;;;;;;;;;;5040533;28;20060;-70
2022/06/15 12:55:05;;;;;;;4.38;1.98;;;;;;;;;;5036725;28;20037;-70
2022/06/15 12:57:43;;;;;;;3.72;1.70;;;;;;;;;;5039781;28;21099;-70
2022/06/15 13:00:16;;;;;;;3.05;1.77;;;;;;;;;;5041725;28;20032;-70
2022/06/15 13:02:54;;;;;;;2.80;1.80;;;;;;;;;;5038196;28;20429;-71
2022/06/15 13:05:29;;;;;;;2.50;1.60;;;;;;;;;;5043912;28;20116;-71
2022/06/15 13:08:25;;;;;;;2.33;1.83;;;;;;;;;;5039647;28;20459;-70
2022/06/15 13:10:53;;;;;;;3.33;1.65;;;;;;;;;;5040611;28;20035;-70
2022/06/15 13:13:24;;;;;;;3.50;1.80;;;;;;;;;;5043360;28;20407;-74
2022/06/15 13:15:50;;;;;;;;;;;;;;;;;;5038080;28;20036;-70
2022/06/15 13:18:15;;;;;;;4.67;2.00;;;;;;;;;;5044351;28;19908;-68
2022/06/15 13:20:57;;;;;;;4.00;2.08;;;;;;;;;;5044035;28;20435;-69
2022/06/15 13:23:22;;;;;;;3.25;2.05;;;;;;;;;;5042566;28;20029;-70
2022/06/15 13:25:54;;;;;;;4.00;1.63;;;;;;;;;;5040960;28;20126;-69
2022/06/15 13:28:26;;;;;;;3.78;1.60;;;;;;;;;;5041510;28;20383;-70
2022/06/15 13:31:13;;;;;;;4.10;1.65;;;;;;;;;;5038194;28;20470;-70
2022/06/15 13:33:48;;;;;;;3.75;1.67;;;;;;;;;;5036775;28;20033;-69
2022/06/15 13:36:14;;;;;;;2.72;1.63;;;;;;;;;;5042760;28;20029;-70
2022/06/15 13:38:42;;;;;;;3.47;2.10;;;;;;;;;;5044724;28;20060;-70
2022/06/15 13:41:20;;;;;;;3.67;1.95;;;;;;;;;;5041641;28;20467;-70
2022/06/15 13:43:46;;;;;;;2.92;1.80;;;;;;;;;;5035462;28;20071;-71
2022/06/15 13:46:27;;;;;;;2.42;1.75;;;;;;;;;;5040306;28;20052;-70
2022/06/15 13:49:22;;;;;;;6.20;2.13;;;;;;;;;;5043323;28;20029;-70
2022/06/15 13:51:50;;;;;;;2.53;1.70;;;;;;;;;;5044369;28;20036;-70
2022/06/15 13:54:49;;;;;;;3.20;1.70;;;;;;;;;;5042648;28;20072;-70
2022/06/15 13:57:24;;;;;;;3.60;1.90;;;;;;;;;;5042786;28;20102;-70
2022/06/15 14:00:09;;;;;;;3.30;1.83;;;;;;;;;;5042785;28;20029;-69
2022/06/15 14:02:34;;;;;;;3.05;2.15;;;;;;;;;;5041421;28;20032;-70
2022/06/15 14:05:10;;;;;;;2.53;1.60;;;;;;;;;;5044598;28;20056;-69
2022/06/15 14:08:05;;;;;;;3.03;1.80;;;;;;;;;;5046459;28;20352;-70
2022/06/15 14:11:08;;;;;;;3.08;2.00;;;;;;;;;;5046146;28;20029;-70
2022/06/15 14:13:42;;;;;;;3.60;1.80;;;;;;;;;;5045359;28;20032;-70
2022/06/15 14:16:08;;;;;;;8.15;1.88;;;;;;;;;;5042243;28;20063;-69
2022/06/15 14:18:40;;;;;;;1.93;1.63;;;;;;;;;;5046430;28;20032;-69
2022/06/15 14:21:18;;;;;;;2.33;1.90;;;;;;;;;;5042725;28;20013;-70
2022/06/15 14:23:43;;;;;;;4.10;1.90;;;;;;;;;;5044440;28;20056;-70
2022/06/15 14:26:11;;;;;;;2.60;1.88;;;;;;;;;;5041665;28;20469;-69
2022/06/15 14:28:36;;;;;;;3.25;1.85;;;;;;;;;;5042031;28;20029;-70
2022/06/15 14:31:14;;;;;;;4.18;1.80;;;;;;;;;;5041398;28;20058;-69
2022/06/15 14:33:39;;;;;;;3.45;1.70;;;;;;;;;;5043381;28;20041;-71
2022/06/15 14:36:17;;;;;;;2.38;1.70;;;;;;;;;;5042981;28;20078;-71
2022/06/15 14:38:53;;;;;;;1.90;1.67;;;;;;;;;;5041624;28;20114;-71
2022/06/15 14:41:21;;;;;;;2.53;1.80;;;;;;;;;;5043489;28;20017;-70
2022/06/15 14:43:51;;;;;;;3.45;1.92;;;;;;;;;;5041696;28;20387;-72
2022/06/15 14:46:21;;;;;;;5.53;2.00;;;;;;;;;;5043508;28;20118;-72
2022/06/15 14:48:49;;;;;;;3.78;1.80;;;;;;;;;;5042997;28;20081;-71
2022/06/15 14:51:18;;;;;;;4.38;3.00;;;;;;;;;;5045725;28;20025;-71
2022/06/15 14:53:56;;;;;;;3.13;1.92;;;;;;;;;;5044700;28;20100;-70
2022/06/15 14:56:24;;;;;;;5.10;2.15;;;;;;;;;;5046844;28;20518;-71
2022/06/15 14:59:07;;;;;;;2.40;1.85;;;;;;;;;;5046755;28;20071;-69
2022/06/15 15:01:33;;;;;;;4.40;2.10;;;;;;;;;;5046833;28;20059;-71
2022/06/15 15:04:17;;;;;;;2.58;1.80;;;;;;;;;;5047157;28;20041;-70
2022/06/15 15:07:01;;;;;;;3.15;2.00;;;;;;;;;;5046837;28;20083;-71
2022/06/15 15:09:29;;;;;;;2.45;1.85;;;;;;;;;;5046697;28;20033;-72
2022/06/15 15:11:55;;;;;;;4.85;2.60;;;;;;;;;;5046501;28;20025;-72
2022/06/15 15:14:32;;;;;;;2.00;1.80;;;;;;;;;;5046922;28;20045;-72
2022/06/15 15:17:07;;;;;;;2.47;1.95;;;;;;;;;;5047276;28;20110;-70
2022/06/15 15:19:37;;;;;;;3.22;1.98;;;;;;;;;;5047270;28;20029;-71
2022/06/15 15:22:09;;;;;;;2.50;1.90;;;;;;;;;;5046717;28;20025;-72
2022/06/15 15:24:45;;;;;;;2.70;2.20;;;;;;;;;;5046233;28;20032;-71
2022/06/15 15:27:17;;;;;;;3.05;1.73;;;;;;;;;;5045989;28;20048;-72
2022/06/15 15:35:49;;;;;;;3.78;1.90;;;;;;;;;;5049548;28;20103;-71
2022/06/15 15:38:17;;;;;;;4.03;2.10;;;;;;;;;;5041886;28;20078;-73
2022/06/15 15:40:45;;;;;;;5.10;2.08;;;;;;;;;;5049345;28;20103;-70
2022/06/15 15:43:10;;;;;;;2.33;1.70;;;;;;;;;;5049839;28;20029;-71